Williamsville, New York
Current Conditions -  °F | °C
As of 10:54 PM on Tuesday 21 Oct 2014 (Local Time) from KBUF Reporting Station
Drizzle Drizzle  
Wind Chill: 40°   Ceiling: 500
Heat Index: 45°   Visibility: 2.5mi
Dew Point: 43°   Wind: 10mph
Humidity: 93%   Direction: 40°NE
Pressure: 30.09"   Gusts: NA
Location:  42.9241°N, 78.8144°W
Report Text: KBUF 220254Z 04009KT 2 1/2SM -DZ BR OVC005 07/06 A3009 RMK AO2 CIG 004V009 SLP193 P0001 60003 T00720061 51025
Loading
Personal Weather Stations






























Interactive Weather Map
Tropical Storm Tracking
New forecast layout! Learn more

10-Day Weather Forecast

Advertisements
Track Severe Weather on mobile